Time;durP1;ratioP1;P1;durP2;ratioP2;P2;SDS_P1;SDS_P2;PMS_P1;PMS_P2;Temp;Humidity;BMP_temperature;BMP_pressure;BME280_temperature;BME280_humidity;BME280_pressure;Samples;Min_cycle;Max_cycle;Signal;HPM_P1;HPM_P2
2022/10/28 00:02:13;;;;;;;;;;;14.20;99.90;;;;;;5050923;28;19947;-64
2022/10/28 00:04:38;;;;;;;;;;;14.20;99.90;;;;;;5056969;28;19964;-64
2022/10/28 00:07:04;;;;;;;;;;;14.20;99.90;;;;;;5058523;28;19912;-64
2022/10/28 00:09:30;;;;;;;;;;;14.10;99.90;;;;;;5057944;28;19913;-64
2022/10/28 00:11:55;;;;;;;;;;;14.00;99.90;;;;;;5051998;28;19920;-64
2022/10/28 00:14:21;;;;;;;;;;;14.10;99.90;;;;;;5061230;28;19912;-64
2022/10/28 00:16:46;;;;;;;;;;;14.00;99.90;;;;;;5056894;28;19919;-64
2022/10/28 00:19:12;;;;;;;;;;;14.00;99.90;;;;;;5061398;28;20007;-63
2022/10/28 00:21:38;;;;;;;;;;;14.00;99.90;;;;;;5055693;28;19955;-64
2022/10/28 00:24:05;;;;;;;;;;;14.00;99.90;;;;;;5042523;28;19925;-64
2022/10/28 00:26:31;;;;;;;;;;;13.90;99.90;;;;;;5045887;28;20273;-65
2022/10/28 00:28:58;;;;;;;;;;;14.00;99.90;;;;;;5063692;28;19920;-64
2022/10/28 00:31:24;;;;;;;;;;;13.90;99.90;;;;;;5057376;28;19920;-64
2022/10/28 00:33:50;;;;;;;;;;;13.80;99.90;;;;;;5060004;28;19913;-64
2022/10/28 00:36:23;;;;;;;;;;;13.80;99.90;;;;;;5058013;28;20234;-64
2022/10/28 00:38:49;;;;;;;;;;;13.80;99.90;;;;;;5061404;28;20363;-64
2022/10/28 00:41:16;;;;;;;;;;;13.80;99.90;;;;;;5049277;28;19912;-64
2022/10/28 00:43:43;;;;;;;;;;;13.70;99.90;;;;;;5057830;28;20261;-64
2022/10/28 00:46:29;;;;;;;;;;;13.60;99.90;;;;;;5041334;28;19913;-61
2022/10/28 00:49:13;;;;;;;;;;;13.50;99.90;;;;;;5055000;28;19951;-63
2022/10/28 00:51:39;;;;;;;;;;;13.50;99.90;;;;;;5050095;28;19913;-64
2022/10/28 00:54:05;;;;;;;;;;;13.50;99.90;;;;;;5055830;28;19966;-64
2022/10/28 00:56:32;;;;;;;;;;;13.60;99.90;;;;;;5048322;28;20325;-64
2022/10/28 00:58:59;;;;;;;;;;;13.70;99.90;;;;;;5050143;28;20379;-64
2022/10/28 01:01:25;;;;;;;;;;;13.60;99.90;;;;;;5051435;28;19919;-64
2022/10/28 01:03:51;;;;;;;;;;;13.50;99.90;;;;;;5050882;28;19920;-64
2022/10/28 01:06:17;;;;;;;;;;;13.40;99.90;;;;;;5047983;28;20430;-65
2022/10/28 01:08:42;;;;;;;;;;;13.40;99.90;;;;;;5045445;28;19916;-64
2022/10/28 01:11:23;;;;;;;;;;;13.30;99.90;;;;;;5043661;28;19924;-64
2022/10/28 01:14:17;;;;;;;;;;;13.30;99.90;;;;;;5055838;28;20058;-64
2022/10/28 01:16:53;;;;;;;;;;;13.40;99.90;;;;;;5067063;28;20391;-63
2022/10/28 01:19:22;;;;;;;;;;;13.50;99.90;;;;;;5056385;28;19959;-64
2022/10/28 01:22:06;;;;;;;;;;;13.50;99.90;;;;;;5042211;28;20003;-63
2022/10/28 01:24:40;;;;;;;;;;;13.50;99.90;;;;;;5045137;28;20372;-63
2022/10/28 01:27:24;;;;;;;;;;;13.50;99.90;;;;;;5052988;28;19913;-62
2022/10/28 01:30:05;;;;;;;;;;;13.50;99.90;;;;;;5065689;28;20015;-63
2022/10/28 01:32:50;;;;;;;;;;;13.60;99.90;;;;;;5048816;28;19917;-63
2022/10/28 01:35:18;;;;;;;;;;;13.60;99.90;;;;;;5062762;28;19912;-63
2022/10/28 01:37:45;;;;;;;;;;;13.70;99.90;;;;;;5058414;28;19912;-64
2022/10/28 01:40:15;;;;;;;;;;;13.70;99.90;;;;;;5054518;28;20296;-63
2022/10/28 01:42:40;;;;;;;;;;;13.80;99.90;;;;;;5054169;28;19916;-63
2022/10/28 01:45:12;;;;;;;;;;;13.70;99.90;;;;;;5066529;28;19963;-63
2022/10/28 01:47:57;;;;;;;;;;;13.70;99.90;;;;;;5060329;28;19920;-64
2022/10/28 01:50:27;;;;;;;;;;;13.80;99.90;;;;;;5049991;28;19912;-64
2022/10/28 01:52:55;;;;;;;;;;;13.90;99.90;;;;;;5053933;28;20372;-63
2022/10/28 01:55:31;;;;;;;;;;;13.90;99.90;;;;;;5067753;28;19913;-64
2022/10/28 01:57:58;;;;;;;;;;;13.90;99.90;;;;;;5060300;28;19912;-64
2022/10/28 02:00:25;;;;;;;;;;;13.90;99.90;;;;;;5058712;28;19948;-63
2022/10/28 02:02:51;;;;;;;;;;;14.00;99.90;;;;;;5050708;28;19944;-63
2022/10/28 02:05:31;;;;;;;;;;;14.00;99.90;;;;;;5068775;28;20360;-63
2022/10/28 02:07:58;;;;;;;;;;;14.00;99.90;;;;;;5064088;28;19912;-63
2022/10/28 02:10:32;;;;;;;;;;;14.00;99.90;;;;;;5057583;28;19974;-63
2022/10/28 02:13:01;;;;;;;;;;;14.00;99.90;;;;;;5061970;28;20012;-63
2022/10/28 02:15:29;;;;;;;;;;;14.00;99.90;;;;;;5050909;28;19921;-65
2022/10/28 02:18:01;;;;;;;;;;;14.00;99.90;;;;;;5064147;28;19947;-64
2022/10/28 02:20:45;;;;;;;;;;;14.10;99.90;;;;;;5060196;28;19970;-64
2022/10/28 02:23:10;;;;;;;;;;;14.10;99.90;;;;;;5040164;28;20232;-64
2022/10/28 02:25:47;;;;;;;;;;;14.00;99.90;;;;;;5056121;28;20423;-65
2022/10/28 02:28:17;;;;;;;;;;;14.00;99.90;;;;;;5049742;28;20011;-64
2022/10/28 02:30:48;;;;;;;;;;;13.90;99.90;;;;;;5050429;28;19912;-62
2022/10/28 02:33:17;;;;;;;;;;;14.00;99.90;;;;;;5059814;28;20024;-62
2022/10/28 02:35:42;;;;;;;;;;;14.00;99.90;;;;;;5058780;28;20340;-62
2022/10/28 02:38:10;;;;;;;;;;;14.00;99.90;;;;;;5062725;28;19956;-62
2022/10/28 02:40:36;;;;;;;;;;;13.90;99.90;;;;;;5058500;28;19913;-63
2022/10/28 02:43:03;;;;;;;;;;;13.90;99.90;;;;;;5057947;28;20374;-62
2022/10/28 02:45:49;;;;;;;;;;;13.90;99.90;;;;;;5050542;28;19971;-63
2022/10/28 02:48:18;;;;;;;;;;;13.90;99.90;;;;;;5052388;28;19943;-61
2022/10/28 02:50:50;;;;;;;;;;;13.80;99.90;;;;;;5051338;28;20387;-63
2022/10/28 02:53:19;;;;;;;;;;;13.90;99.90;;;;;;5055306;28;19917;-62
2022/10/28 02:55:48;;;;;;;;;;;14.00;99.90;;;;;;5053440;28;19913;-65
2022/10/28 02:58:13;;;;;;;;;;;13.90;99.90;;;;;;5049043;28;19912;-63
2022/10/28 03:00:42;;;;;;;;;;;13.90;99.90;;;;;;5060647;28;20368;-63
2022/10/28 03:03:08;;;;;;;;;;;13.90;99.90;;;;;;5060637;28;20031;-63
2022/10/28 03:05:33;;;;;;;;;;;14.00;99.90;;;;;;5054528;28;20022;-63
2022/10/28 03:07:59;;;;;;;;;;;13.90;99.90;;;;;;5051922;28;19995;-63
2022/10/28 03:10:25;;;;;;;;;;;13.90;99.90;;;;;;5057120;28;20184;-63
2022/10/28 03:12:50;;;;;;;;;;;13.90;99.90;;;;;;5055948;28;20451;-63
2022/10/28 03:15:16;;;;;;;;;;;13.90;99.90;;;;;;5055298;28;20003;-63
2022/10/28 03:17:41;;;;;;;;;;;13.90;99.90;;;;;;5051373;28;19952;-63
2022/10/28 03:20:07;;;;;;;;;;;13.80;99.90;;;;;;5051707;28;19964;-63
2022/10/28 03:22:33;;;;;;;;;;;14.00;99.90;;;;;;5054930;28;19912;-63
2022/10/28 03:24:58;;;;;;;;;;;14.00;99.90;;;;;;5052752;28;19917;-63
2022/10/28 03:27:24;;;;;;;;;;;14.10;99.90;;;;;;5053174;28;19999;-63
2022/10/28 03:29:49;;;;;;;;;;;14.10;99.90;;;;;;5047716;28;20410;-63
2022/10/28 03:32:15;;;;;;;;;;;14.10;99.90;;;;;;5049897;28;19912;-65
2022/10/28 03:34:40;;;;;;;;;;;14.00;99.90;;;;;;5055275;28;20261;-64
2022/10/28 03:37:06;;;;;;;;;;;14.10;99.90;;;;;;5054628;28;20399;-63
2022/10/28 03:39:32;;;;;;;;;;;14.10;99.90;;;;;;5055760;28;19917;-62
2022/10/28 03:41:57;;;;;;;;;;;14.10;99.90;;;;;;5066491;28;20338;-64
2022/10/28 03:44:23;;;;;;;;;;;14.20;99.90;;;;;;5055627;28;19927;-63
2022/10/28 03:46:48;;;;;;;;;;;14.20;99.90;;;;;;5051736;28;19917;-63
2022/10/28 03:49:14;;;;;;;;;;;14.10;99.90;;;;;;5057267;28;19920;-62
2022/10/28 03:51:39;;;;;;;;;;;14.10;99.90;;;;;;5055042;28;19936;-63
2022/10/28 03:54:05;;;;;;;;;;;14.00;99.90;;;;;;5062390;28;20387;-63
2022/10/28 03:56:30;;;;;;;;;;;14.00;99.90;;;;;;5054069;28;20284;-63
2022/10/28 03:58:56;;;;;;;;;;;14.00;99.90;;;;;;5060467;28;19913;-63
2022/10/28 04:01:21;;;;;;;;;;;14.00;99.90;;;;;;5049745;28;19913;-64
2022/10/28 04:03:47;;;;;;;;;;;14.10;99.90;;;;;;5050510;28;19924;-63
2022/10/28 04:06:13;;;;;;;;;;;14.20;99.90;;;;;;5047759;28;19920;-61
2022/10/28 04:08:38;;;;;;;;;;;14.20;99.90;;;;;;5055682;28;19916;-64
2022/10/28 04:11:04;;;;;;;;;;;14.10;99.90;;;;;;5051626;28;19917;-64
2022/10/28 04:13:30;;;;;;;;;;;14.00;99.90;;;;;;5053199;28;19919;-63
2022/10/28 04:15:55;;;;;;;;;;;14.00;99.90;;;;;;5058582;28;20003;-64
2022/10/28 04:18:21;;;;;;;;;;;13.90;99.90;;;;;;5055754;28;19963;-64
2022/10/28 04:20:46;;;;;;;;;;;14.00;99.90;;;;;;5049348;28;19924;-63
2022/10/28 04:23:15;;;;;;;;;;;14.00;99.90;;;;;;5052661;28;19928;-63
2022/10/28 04:25:41;;;;;;;;;;;14.00;99.90;;;;;;5042711;28;20312;-63
2022/10/28 04:28:07;;;;;;;;;;;14.10;99.90;;;;;;5056981;28;19923;-63
2022/10/28 04:30:32;;;;;;;;;;;14.10;99.90;;;;;;5039330;28;20406;-63
2022/10/28 04:32:58;;;;;;;;;;;14.00;99.90;;;;;;5053849;28;19939;-63
2022/10/28 04:35:24;;;;;;;;;;;14.00;99.90;;;;;;5053502;28;19913;-63
2022/10/28 04:37:49;;;;;;;;;;;14.00;99.90;;;;;;5052013;28;19917;-63
2022/10/28 04:40:15;;;;;;;;;;;14.00;99.90;;;;;;5049558;28;20368;-63
2022/10/28 04:42:40;;;;;;;;;;;14.10;99.90;;;;;;5056071;28;19960;-63
2022/10/28 04:45:07;;;;;;;;;;;14.10;99.90;;;;;;5045572;28;19923;-63
2022/10/28 04:47:32;;;;;;;;;;;14.20;99.90;;;;;;5054504;28;20386;-62
2022/10/28 04:49:58;;;;;;;;;;;14.20;99.90;;;;;;5056601;28;19913;-62
2022/10/28 04:52:23;;;;;;;;;;;14.20;99.90;;;;;;5042288;28;19913;-62
2022/10/28 04:54:49;;;;;;;;;;;14.20;99.90;;;;;;5053014;28;19921;-64
2022/10/28 04:57:14;;;;;;;;;;;14.30;99.90;;;;;;5053957;28;19917;-64
2022/10/28 04:59:40;;;;;;;;;;;14.40;99.90;;;;;;5045883;28;20257;-64
2022/10/28 05:02:05;;;;;;;;;;;14.40;99.90;;;;;;5056746;28;19968;-63
2022/10/28 05:04:31;;;;;;;;;;;14.50;99.90;;;;;;5055957;28;19931;-63
2022/10/28 05:06:56;;;;;;;;;;;14.60;99.90;;;;;;5048357;28;20284;-64
2022/10/28 05:09:22;;;;;;;;;;;14.60;99.90;;;;;;5055482;28;20383;-63
2022/10/28 05:11:47;;;;;;;;;;;14.60;99.90;;;;;;5056956;28;20336;-63
2022/10/28 05:14:13;;;;;;;;;;;14.60;99.90;;;;;;5051999;28;20327;-64
2022/10/28 05:16:38;;;;;;;;;;;14.70;99.90;;;;;;5052917;28;20273;-64
2022/10/28 05:19:04;;;;;;;;;;;14.70;99.90;;;;;;5059696;28;19912;-64
2022/10/28 05:21:29;;;;;;;;;;;14.80;99.90;;;;;;5059232;28;19913;-64
2022/10/28 05:23:55;;;;;;;;;;;14.90;99.90;;;;;;5057298;28;20380;-64
2022/10/28 05:26:20;;;;;;;;;;;15.00;99.90;;;;;;5053722;28;20316;-64
2022/10/28 05:28:49;;;;;;;;;;;14.90;99.90;;;;;;5044245;28;20365;-64
2022/10/28 05:31:15;;;;;;;;;;;14.80;99.90;;;;;;5048345;28;19996;-62
2022/10/28 05:33:40;;;;;;;;;;;14.80;99.90;;;;;;5052299;28;20323;-64
2022/10/28 05:36:06;;;;;;;;;;;14.90;99.90;;;;;;5055935;28;20326;-64
2022/10/28 05:38:31;;;;;;;;;;;14.90;99.90;;;;;;5049971;28;20368;-64
2022/10/28 05:40:57;;;;;;;;;;;15.10;99.90;;;;;;5060430;28;20442;-63
2022/10/28 05:43:22;;;;;;;;;;;15.20;99.90;;;;;;5056885;28;19975;-64
2022/10/28 05:45:55;;;;;;;;;;;15.30;99.90;;;;;;5056231;28;19958;-64
2022/10/28 05:48:20;;;;;;;;;;;15.30;99.90;;;;;;5045078;28;19920;-64
2022/10/28 05:50:46;;;;;;;;;;;15.50;99.90;;;;;;5051786;28;19912;-64
2022/10/28 05:53:11;;;;;;;;;;;15.50;99.90;;;;;;5059270;28;19912;-64
2022/10/28 05:55:37;;;;;;;;;;;15.50;99.90;;;;;;5061110;28;19989;-64
2022/10/28 05:58:03;;;;;;;;;;;15.60;99.90;;;;;;5051627;28;19942;-64
2022/10/28 06:00:29;;;;;;;;;;;15.60;99.90;;;;;;5054390;28;19999;-64
2022/10/28 06:03:08;;;;;;;;;;;15.60;99.90;;;;;;5051693;28;19964;-64
2022/10/28 06:05:34;;;;;;;;;;;15.60;99.90;;;;;;5033003;28;19916;-64
2022/10/28 06:07:59;;;;;;;;;;;15.60;99.90;;;;;;5045261;28;20007;-65
2022/10/28 06:10:25;;;;;;;;;;;15.70;99.90;;;;;;5047022;28;20328;-64
2022/10/28 06:12:53;;;;;;;;;;;15.70;99.90;;;;;;5040694;28;19920;-64
2022/10/28 06:15:18;;;;;;;;;;;15.70;99.90;;;;;;5035818;28;19913;-64
2022/10/28 06:17:46;;;;;;;;;;;15.80;99.90;;;;;;5043029;28;20066;-64
2022/10/28 06:20:11;;;;;;;;;;;15.80;99.90;;;;;;5050160;28;19913;-64
2022/10/28 06:22:37;;;;;;;;;;;15.90;99.90;;;;;;5048150;28;19936;-64
2022/10/28 06:25:02;;;;;;;;;;;15.90;99.90;;;;;;5051643;28;20644;-64
2022/10/28 06:27:28;;;;;;;;;;;16.00;99.90;;;;;;5046485;28;19920;-64
2022/10/28 06:29:53;;;;;;;;;;;16.10;99.90;;;;;;5034027;28;19920;-64
2022/10/28 06:32:19;;;;;;;;;;;16.20;99.90;;;;;;5055805;28;19919;-64
2022/10/28 06:34:44;;;;;;;;;;;16.30;99.90;;;;;;5049994;28;19913;-65
2022/10/28 06:37:10;;;;;;;;;;;16.50;99.90;;;;;;5048576;28;19919;-64
2022/10/28 06:39:37;;;;;;;;;;;16.50;99.90;;;;;;5045006;28;20007;-64
2022/10/28 06:42:02;;;;;;;;;;;16.60;99.90;;;;;;5063538;28;20011;-63
2022/10/28 06:44:28;;;;;;;;;;;16.60;99.90;;;;;;5050667;28;20027;-64
2022/10/28 06:46:54;;;;;;;;;;;16.70;99.90;;;;;;5055516;28;19923;-63
2022/10/28 06:49:19;;;;;;;;;;;16.70;99.90;;;;;;5044214;28;19921;-64
2022/10/28 06:51:45;;;;;;;;;;;16.80;99.90;;;;;;5048180;28;20276;-63
2022/10/28 06:54:10;;;;;;;;;;;16.90;99.90;;;;;;5054498;28;19965;-64
2022/10/28 06:56:36;;;;;;;;;;;16.90;99.90;;;;;;5037435;28;19921;-64
2022/10/28 06:59:01;;;;;;;;;;;17.00;99.90;;;;;;5041430;28;19917;-63
2022/10/28 07:01:27;;;;;;;;;;;17.00;99.90;;;;;;5047135;28;19947;-63
2022/10/28 07:03:52;;;;;;;;;;;17.00;99.90;;;;;;5051432;28;19920;-63
2022/10/28 07:06:18;;;;;;;;;;;17.00;99.90;;;;;;5044923;28;19916;-63
2022/10/28 07:08:43;;;;;;;;;;;17.00;99.90;;;;;;5043991;28;19920;-64
2022/10/28 07:11:09;;;;;;;;;;;16.90;99.90;;;;;;5042016;28;19932;-63
2022/10/28 07:13:34;;;;;;;;;;;17.00;99.90;;;;;;5052593;28;19913;-63
2022/10/28 07:16:00;;;;;;;;;;;17.00;99.90;;;;;;5043682;28;19921;-63
2022/10/28 07:18:27;;;;;;;;;;;17.00;99.90;;;;;;5040686;28;19913;-64
2022/10/28 07:20:52;;;;;;;;;;;17.00;99.90;;;;;;5033831;28;19999;-63
2022/10/28 07:23:18;;;;;;;;;;;17.10;99.90;;;;;;5049327;28;19932;-63
2022/10/28 07:25:50;;;;;;;;;;;17.10;99.90;;;;;;5044372;28;19913;-64
2022/10/28 07:28:15;;;;;;;;;;;17.10;99.90;;;;;;5053792;28;19916;-63
2022/10/28 07:30:41;;;;;;;;;;;17.10;99.90;;;;;;5040576;28;19919;-64
2022/10/28 07:33:06;;;;;;;;;;;17.10;99.90;;;;;;5051569;28;19920;-63
2022/10/28 07:35:32;;;;;;;;;;;17.20;99.90;;;;;;5045516;28;20007;-63
2022/10/28 07:37:57;;;;;;;;;;;17.20;99.90;;;;;;5058136;28;20428;-64
2022/10/28 07:40:23;;;;;;;;;;;17.20;99.90;;;;;;5046875;28;20028;-64
2022/10/28 07:42:49;;;;;;;;;;;17.30;99.90;;;;;;5049361;28;19959;-63
2022/10/28 07:45:16;;;;;;;;;;;17.40;99.90;;;;;;5056608;28;19921;-64
2022/10/28 07:47:41;;;;;;;;;;;17.40;99.90;;;;;;5049503;28;19912;-64
2022/10/28 07:50:08;;;;;;;;;;;17.50;99.90;;;;;;5054575;28;19913;-65
2022/10/28 07:52:34;;;;;;;;;;;17.50;99.90;;;;;;5056108;28;20004;-64
2022/10/28 07:55:00;;;;;;;;;;;17.50;99.90;;;;;;5056475;28;19969;-65
2022/10/28 07:57:25;;;;;;;;;;;17.60;99.90;;;;;;5049258;28;20284;-63
2022/10/28 07:59:51;;;;;;;;;;;17.70;99.90;;;;;;5049265;28;19920;-64
2022/10/28 08:02:17;;;;;;;;;;;17.70;99.90;;;;;;5057268;28;19924;-63
2022/10/28 08:04:43;;;;;;;;;;;17.80;99.90;;;;;;5058006;28;20297;-63
2022/10/28 08:07:09;;;;;;;;;;;17.90;99.90;;;;;;5054532;28;19916;-62
2022/10/28 08:09:34;;;;;;;;;;;17.90;99.90;;;;;;5057564;28;19916;-63
2022/10/28 08:12:00;;;;;;;;;;;18.00;99.90;;;;;;5049166;28;20020;-64
2022/10/28 08:14:25;;;;;;;;;;;18.00;99.90;;;;;;5055147;28;19919;-63
2022/10/28 08:16:51;;;;;;;;;;;18.10;99.90;;;;;;5043566;28;19913;-63
2022/10/28 08:19:16;;;;;;;;;;;18.20;99.90;;;;;;5043794;28;19920;-64
2022/10/28 08:21:42;;;;;;;;;;;18.30;99.90;;;;;;5049764;28;19913;-64
2022/10/28 08:24:07;;;;;;;;;;;18.30;99.90;;;;;;5049485;28;19925;-65
2022/10/28 08:26:33;;;;;;;;;;;18.40;99.90;;;;;;5045965;28;19913;-64
2022/10/28 08:29:00;;;;;;;;;;;18.40;99.90;;;;;;5029871;28;19933;-65
2022/10/28 08:31:25;;;;;;;;;;;18.40;99.90;;;;;;5045085;28;20388;-63
2022/10/28 08:33:51;;;;;;;;;;;18.40;99.90;;;;;;5056373;28;20015;-64
2022/10/28 08:36:17;;;;;;;;;;;18.40;99.90;;;;;;5058982;28;20391;-65
2022/10/28 08:38:43;;;;;;;;;;;18.40;99.90;;;;;;5064197;28;20371;-63
2022/10/28 08:41:18;;;;;;;;;;;18.40;99.90;;;;;;5054588;28;19967;-64
2022/10/28 08:43:46;;;;;;;;;;;18.40;99.90;;;;;;5053537;28;19921;-65
2022/10/28 08:46:30;;;;;;;;;;;18.40;99.90;;;;;;5052944;28;19928;-64
2022/10/28 08:48:56;;;;;;;;;;;18.30;99.90;;;;;;5052760;28;19995;-64
2022/10/28 08:51:28;;;;;;;;;;;18.20;99.90;;;;;;5052054;28;20380;-64
2022/10/28 08:53:58;;;;;;;;;;;18.20;99.90;;;;;;5049921;28;19920;-63
2022/10/28 08:56:28;;;;;;;;;;;18.20;99.90;;;;;;5048942;28;19920;-64
2022/10/28 08:58:59;;;;;;;;;;;18.20;99.90;;;;;;5056360;28;20391;-64
2022/10/28 09:01:34;;;;;;;;;;;18.20;99.90;;;;;;5043621;28;19936;-64
2022/10/28 09:04:01;;;;;;;;;;;18.00;99.90;;;;;;5040817;28;19925;-64
2022/10/28 09:06:29;;;;;;;;;;;18.00;99.90;;;;;;5049154;28;19921;-63
2022/10/28 09:08:56;;;;;;;;;;;18.00;99.90;;;;;;5048311;28;19913;-63
2022/10/28 09:11:34;;;;;;;;;;;18.00;99.90;;;;;;5050801;28;19912;-63
2022/10/28 09:14:18;;;;;;;;;;;18.10;99.90;;;;;;5054262;28;19924;-64
2022/10/28 09:16:58;;;;;;;;;;;18.10;99.90;;;;;;5053635;28;20012;-64
2022/10/28 09:19:26;;;;;;;;;;;18.10;99.90;;;;;;5060953;28;19912;-64
2022/10/28 09:21:58;;;;;;;;;;;18.10;99.90;;;;;;5048739;28;19959;-64
2022/10/28 09:24:44;;;;;;;;;;;18.00;99.90;;;;;;5048161;28;19966;-63
2022/10/28 09:27:09;;;;;;;;;;;18.10;99.90;;;;;;5046960;28;19916;-61
2022/10/28 09:29:53;;;;;;;;;;;18.00;99.90;;;;;;5055899;28;19919;-63
2022/10/28 09:32:31;;;;;;;;;;;17.90;99.90;;;;;;5056471;28;19942;-63
2022/10/28 09:35:07;;;;;;;;;;;17.90;99.90;;;;;;5059276;28;19916;-64
2022/10/28 09:37:37;;;;;;;;;;;17.90;99.90;;;;;;5059032;28;19917;-64
2022/10/28 09:40:14;;;;;;;;;;;17.90;99.90;;;;;;5060650;28;19960;-63
2022/10/28 09:42:43;;;;;;;;;;;17.80;99.90;;;;;;5061545;28;20273;-63
2022/10/28 09:45:15;;;;;;;;;;;18.00;99.90;;;;;;5057993;28;19924;-63
2022/10/28 09:47:43;;;;;;;;;;;18.00;99.90;;;;;;5057751;28;19916;-64
2022/10/28 09:50:14;;;;;;;;;;;18.00;99.90;;;;;;5053307;28;19923;-64
2022/10/28 09:53:00;;;;;;;;;;;18.20;99.90;;;;;;5053958;28;19966;-64
2022/10/28 09:55:25;;;;;;;;;;;18.20;99.90;;;;;;5056863;28;19913;-64
2022/10/28 09:57:51;;;;;;;;;;;18.10;99.90;;;;;;5062604;28;20262;-64
2022/10/28 10:00:17;;;;;;;;;;;18.10;99.90;;;;;;5047768;28;19912;-64
2022/10/28 10:02:43;;;;;;;;;;;18.20;99.90;;;;;;5058668;28;20303;-63
2022/10/28 10:05:13;;;;;;;;;;;18.20;99.90;;;;;;5060513;28;19958;-64
2022/10/28 10:07:40;;;;;;;;;;;18.20;99.90;;;;;;5054462;28;20014;-63
2022/10/28 10:10:12;;;;;;;;;;;18.20;99.90;;;;;;5059619;28;19912;-63
2022/10/28 10:12:38;;;;;;;;;;;18.30;99.90;;;;;;5061140;28;19920;-64
2022/10/28 10:15:05;;;;;;;;;;;18.20;99.90;;;;;;5051075;28;20364;-63
2022/10/28 10:17:41;;;;;;;;;;;18.10;99.90;;;;;;5059746;28;20003;-64
2022/10/28 10:20:11;;;;;;;;;;;17.90;99.90;;;;;;5055570;28;19923;-63
2022/10/28 10:22:37;;;;;;;;;;;17.80;99.90;;;;;;5053910;28;19917;-63
2022/10/28 10:25:18;;;;;;;;;;;17.80;99.90;;;;;;5063584;28;19921;-63
2022/10/28 10:27:51;;;;;;;;;;;17.80;99.90;;;;;;5057991;28;19912;-63
2022/10/28 10:30:25;;;;;;;;;;;17.70;99.90;;;;;;5049493;28;19913;-63
2022/10/28 10:32:51;;;;;;;;;;;17.80;99.90;;;;;;5056361;28;19913;-62
2022/10/28 10:35:23;;;;;;;;;;;17.90;99.90;;;;;;5056415;28;19944;-62
2022/10/28 10:37:48;;;;;;;;;;;17.90;99.90;;;;;;5056138;28;19920;-63
2022/10/28 10:40:25;;;;;;;;;;;17.90;99.90;;;;;;5054656;28;19917;-63
2022/10/28 10:42:51;;;;;;;;;;;17.90;99.90;;;;;;5057468;28;20383;-63
2022/10/28 10:45:21;;;;;;;;;;;18.00;99.90;;;;;;5061800;28;19975;-64
2022/10/28 10:47:46;;;;;;;;;;;18.20;99.90;;;;;;5055771;28;19912;-63
2022/10/28 10:50:18;;;;;;;;;;;18.10;99.90;;;;;;5053879;28;19959;-63
2022/10/28 10:52:47;;;;;;;;;;;18.20;99.90;;;;;;5053045;28;19913;-63
2022/10/28 10:55:18;;;;;;;;;;;18.10;99.90;;;;;;5061380;28;19912;-62
2022/10/28 10:57:45;;;;;;;;;;;18.20;99.90;;;;;;5050308;28;19917;-63
2022/10/28 11:00:14;;;;;;;;;;;18.50;99.90;;;;;;5053336;28;20000;-64
2022/10/28 11:02:43;;;;;;;;;;;18.50;99.90;;;;;;5050931;28;19928;-65
2022/10/28 11:05:09;;;;;;;;;;;18.50;99.90;;;;;;5061399;28;19916;-64
2022/10/28 11:07:36;;;;;;;;;;;18.20;99.90;;;;;;5048201;28;19967;-64
2022/10/28 11:10:01;;;;;;;;;;;18.20;99.90;;;;;;5052343;28;19913;-63
2022/10/28 11:12:27;;;;;;;;;;;18.30;99.90;;;;;;5048326;28;19927;-63
2022/10/28 11:14:54;;;;;;;;;;;18.40;99.90;;;;;;5048343;28;19917;-63
2022/10/28 11:17:24;;;;;;;;;;;18.40;99.90;;;;;;5050893;28;19917;-63
2022/10/28 11:19:52;;;;;;;;;;;18.80;99.90;;;;;;5055297;28;19913;-63
2022/10/28 11:22:24;;;;;;;;;;;18.80;99.90;;;;;;5047225;28;20415;-63
2022/10/28 11:24:58;;;;;;;;;;;19.00;99.90;;;;;;5055006;28;19921;-63
2022/10/28 11:27:26;;;;;;;;;;;18.80;99.90;;;;;;5039696;28;19964;-63
2022/10/28 11:29:52;;;;;;;;;;;19.00;99.90;;;;;;5045721;28;19966;-64
2022/10/28 11:32:32;;;;;;;;;;;18.70;99.90;;;;;;5055661;28;20287;-63
2022/10/28 11:35:05;;;;;;;;;;;18.60;99.90;;;;;;5058915;28;20455;-64
2022/10/28 11:37:30;;;;;;;;;;;19.00;99.90;;;;;;5052556;28;19917;-63
2022/10/28 11:39:56;;;;;;;;;;;19.40;99.90;;;;;;5052870;28;19920;-63
2022/10/28 11:42:40;;;;;;;;;;;19.80;99.90;;;;;;5057089;28;19966;-64
2022/10/28 11:45:05;;;;;;;;;;;19.90;99.90;;;;;;5054471;28;19971;-64
2022/10/28 11:47:35;;;;;;;;;;;19.70;99.90;;;;;;5049082;28;20384;-63
2022/10/28 11:50:21;;;;;;;;;;;19.90;99.90;;;;;;5052269;28;19921;-64
2022/10/28 11:52:58;;;;;;;;;;;19.90;99.90;;;;;;5052433;28;19920;-63
2022/10/28 11:55:32;;;;;;;;;;;20.00;99.90;;;;;;5053034;28;19912;-63
2022/10/28 11:58:10;;;;;;;;;;;20.40;99.90;;;;;;5049029;28;19919;-63
2022/10/28 12:00:59;;;;;;;;;;;20.50;99.90;;;;;;5050228;28;20362;-64
2022/10/28 12:03:39;;;;;;;;;;;21.00;99.90;;;;;;5038805;28;19929;-64
2022/10/28 12:06:15;;;;;;;;;;;20.40;99.90;;;;;;5051484;28;20359;-64
2022/10/28 12:08:50;;;;;;;;;;;20.50;99.90;;;;;;5048370;28;19919;-64
2022/10/28 12:11:24;;;;;;;;;;;20.60;99.90;;;;;;5043130;28;19917;-64
2022/10/28 12:13:57;;;;;;;;;;;20.60;99.90;;;;;;5058601;28;19913;-62
2022/10/28 12:16:31;;;;;;;;;;;20.40;99.90;;;;;;5047587;28;19920;-62
2022/10/28 12:18:57;;;;;;;;;;;20.80;99.90;;;;;;5057557;28;19920;-63
2022/10/28 12:21:26;;;;;;;;;;;21.20;99.90;;;;;;5045880;28;19913;-62
2022/10/28 12:23:52;;;;;;;;;;;21.50;99.90;;;;;;5056888;28;19921;-62
2022/10/28 12:26:19;;;;;;;;;;;21.40;99.90;;;;;;5045836;28;19966;-60
2022/10/28 12:28:50;;;;;;;;;;;21.50;99.90;;;;;;5044270;28;20289;-62
2022/10/28 12:31:18;;;;;;;;;;;21.70;99.90;;;;;;5042720;28;19924;-63
2022/10/28 12:33:46;;;;;;;;;;;21.40;99.90;;;;;;5048544;28;19924;-62
2022/10/28 12:36:16;;;;;;;;;;;21.60;99.90;;;;;;5046145;28;19944;-61
2022/10/28 12:38:45;;;;;;;;;;;21.50;99.90;;;;;;5045340;28;19936;-64
2022/10/28 12:41:13;;;;;;;;;;;21.30;99.90;;;;;;5045210;28;20364;-65
2022/10/28 12:43:47;;;;;;;;;;;21.40;99.90;;;;;;5048615;28;19928;-63
2022/10/28 12:46:24;;;;;;;;;;;21.50;99.90;;;;;;5043088;28;19921;-63
2022/10/28 12:48:54;;;;;;;;;;;21.20;99.90;;;;;;5047976;28;19917;-63
2022/10/28 12:51:29;;;;;;;;;;;20.60;99.90;;;;;;5042986;28;20336;-63
2022/10/28 12:54:02;;;;;;;;;;;21.00;99.90;;;;;;5047726;28;19913;-65
2022/10/28 12:56:34;;;;;;;;;;;21.20;99.90;;;;;;5046293;28;19920;-64
2022/10/28 12:59:09;;;;;;;;;;;20.90;99.90;;;;;;5050093;28;19975;-64
2022/10/28 13:01:35;;;;;;;;;;;20.70;99.90;;;;;;5045282;28;20015;-63
2022/10/28 13:04:00;;;;;;;;;;;20.30;99.90;;;;;;5056443;28;19966;-64
2022/10/28 13:06:45;;;;;;;;;;;20.30;99.90;;;;;;5053468;28;20326;-63
2022/10/28 13:09:10;;;;;;;;;;;20.20;99.90;;;;;;5047745;28;19943;-64
2022/10/28 13:12:01;;;;;;;;;;;20.60;99.90;;;;;;5046719;28;19916;-62
2022/10/28 13:14:42;;;;;;;;;;;20.60;99.90;;;;;;5045019;28;19987;-64
2022/10/28 13:17:14;;;;;;;;;;;20.10;99.90;;;;;;5050598;28;19913;-63
2022/10/28 13:20:02;;;;;;;;;;;20.30;99.90;;;;;;5046537;28;19959;-63
2022/10/28 13:22:33;;;;;;;;;;;20.40;99.90;;;;;;5046086;28;19921;-63
2022/10/28 13:25:17;;;;;;;;;;;20.10;99.90;;;;;;5051963;28;20388;-63
2022/10/28 13:27:43;;;;;;;;;;;20.20;99.90;;;;;;5041090;28;19989;-63
2022/10/28 13:30:16;;;;;;;;;;;20.50;99.90;;;;;;5048970;28;20276;-63
2022/10/28 13:32:42;;;;;;;;;;;21.00;99.90;;;;;;5061936;28;19919;-63
2022/10/28 13:35:20;;;;;;;;;;;21.10;99.90;;;;;;5057237;28;20709;-63
2022/10/28 13:37:47;;;;;;;;;;;21.20;99.90;;;;;;5041435;28;19913;-64
2022/10/28 13:40:20;;;;;;;;;;;21.70;99.90;;;;;;5049535;28;19913;-64
2022/10/28 13:42:47;;;;;;;;;;;21.70;99.90;;;;;;5040064;28;19920;-64
2022/10/28 13:45:31;;;;;;;;;;;21.80;99.90;;;;;;5045602;28;19913;-62
2022/10/28 13:48:15;;;;;;;;;;;21.50;99.90;;;;;;5041857;28;19913;-63
2022/10/28 13:50:40;;;;;;;;;;;21.20;99.90;;;;;;5048099;28;19913;-62
2022/10/28 13:53:26;;;;;;;;;;;21.00;99.90;;;;;;5037781;28;19913;-63
2022/10/28 13:55:56;;;;;;;;;;;21.00;99.90;;;;;;5040175;28;19913;-64
2022/10/28 13:58:22;;;;;;;;;;;20.70;99.90;;;;;;5042088;28;19934;-63
2022/10/28 14:00:48;;;;;;;;;;;20.30;99.90;;;;;;5047831;28;19920;-64
2022/10/28 14:03:20;;;;;;;;;;;20.20;99.90;;;;;;5047856;28;19921;-63
2022/10/28 14:05:45;;;;;;;;;;;20.00;99.90;;;;;;5039667;28;20265;-63
2022/10/28 14:08:18;;;;;;;;;;;19.60;99.90;;;;;;5045651;28;20466;-64
2022/10/28 14:11:02;;;;;;;;;;;19.30;99.90;;;;;;5045455;28;19913;-63
2022/10/28 14:13:30;;;;;;;;;;;19.40;99.90;;;;;;5051773;28;19919;-64
2022/10/28 14:16:22;;;;;;;;;;;19.60;99.90;;;;;;5038262;28;19917;-63
2022/10/28 14:18:53;;;;;;;;;;;19.80;99.90;;;;;;5041841;28;20532;-63
2022/10/28 14:21:19;;;;;;;;;;;19.70;99.90;;;;;;5042595;28;19996;-63
2022/10/28 14:23:47;;;;;;;;;;;19.80;99.90;;;;;;5045035;28;20015;-64
2022/10/28 14:26:13;;;;;;;;;;;20.00;99.90;;;;;;5036710;28;20341;-61
2022/10/28 14:28:38;;;;;;;;;;;20.30;99.90;;;;;;5048521;28;19994;-63